Decoded Metar for LFBY (DAX in FRANCE) (IATA:N/A) | Meteo·Mobile Aviation Weather
aviador You're here:

LFBY Decoded Metar

DAX in FRANCE
Report Time2019-07-24 05:00:00
UTC Time2019-07-24 05:32:32
Flight Rules ifr IFR
WindVRB at 02 kt
Visibility4000 m
Phenomena:Mist
Clouds:N/A
Expected CloudBase > 400 ft AGL from Temp-Dew spread
CeilingNone
Temp21°C (ISA +6)
Dew Point20°C (94% RH)
QNH1015 hPa
Density Alt1,070 ft
Elevation105 ft
Report Wrong Elevation
Raw Report
METAR LFBY 240500Z VRB02KT 4000 BR NSC 21/20 Q1015=

Extra information for LFBY:More info

Metar Taf Metar & Taf Last 4 Metars F.Rules Stats Wind Profile Meteogram Temp Stats Airport Information Weather charts Add Link Nearby VenuesMetar ALERT Operation Metar Decoded Social comments